Clay, Arkansas
Current Conditions -  °F | °C
As of 2:56 PM on Wednesday 26 Nov 2014 (Local Time) from KSRC Reporting Station
Few Clouds Few Clouds  
Wind Chill: 56°   Ceiling: Unl
Heat Index: 56°   Visibility: 10mi
Dew Point: 33°   Wind: 6mph
Humidity: 42%   Direction: 310°NW
Pressure: 30.04"   Gusts: 16mph
Location:  35.2662°N, 91.8491°W
Report Text: KSRC 262056Z AUTO 31005G14KT 10SM FEW065 13/01 A3004 RMK AO2 SLP180 T01330006 53007 TSNO
Loading
Personal Weather Stations






























Interactive Weather Map New forecast layout! Learn more

10-Day Weather Forecast

Advertisements
Track Severe Weather on mobile